sensor_id;sensor_type;location;lat;lon;timestamp;pressure;altitude;pressure_sealevel;temperature;humidity
14838;BME280;7510;59.296;18.106;2022-10-16T00:01:45;100027.59;;;21.12;65.45
14838;BME280;7510;59.296;18.106;2022-10-16T00:04:11;100029.09;;;22.11;61.83
14838;BME280;7510;59.296;18.106;2022-10-16T00:06:37;100027.34;;;21.90;62.40
14838;BME280;7510;59.296;18.106;2022-10-16T00:09:03;100022.56;;;22.50;60.13
14838;BME280;7510;59.296;18.106;2022-10-16T00:11:31;100025.25;;;21.79;62.43
14838;BME280;7510;59.296;18.106;2022-10-16T00:14:04;100028.75;;;22.38;60.51
14838;BME280;7510;59.296;18.106;2022-10-16T00:16:30;100021.66;;;21.95;61.62
14838;BME280;7510;59.296;18.106;2022-10-16T00:18:56;100031.22;;;21.81;62.31
14838;BME280;7510;59.296;18.106;2022-10-16T00:21:25;100024.50;;;21.14;64.23
14838;BME280;7510;59.296;18.106;2022-10-16T00:23:57;100028.44;;;21.55;63.52
14838;BME280;7510;59.296;18.106;2022-10-16T00:26:25;100031.50;;;21.37;63.71
14838;BME280;7510;59.296;18.106;2022-10-16T00:28:51;100013.91;;;21.72;61.96
14838;BME280;7510;59.296;18.106;2022-10-16T00:31:19;100030.09;;;21.65;62.76
14838;BME280;7510;59.296;18.106;2022-10-16T00:33:45;100030.75;;;21.62;63.15
14838;BME280;7510;59.296;18.106;2022-10-16T00:36:13;100033.13;;;21.46;63.07
14838;BME280;7510;59.296;18.106;2022-10-16T00:38:39;100034.59;;;22.11;60.70
14838;BME280;7510;59.296;18.106;2022-10-16T00:41:12;100010.47;;;22.17;60.86
14838;BME280;7510;59.296;18.106;2022-10-16T00:43:52;100009.03;;;22.02;60.54
14838;BME280;7510;59.296;18.106;2022-10-16T00:46:24;100017.72;;;21.20;63.90
14838;BME280;7510;59.296;18.106;2022-10-16T00:49:09;100012.25;;;21.54;63.10
14838;BME280;7510;59.296;18.106;2022-10-16T00:51:37;100011.28;;;22.00;60.66
14838;BME280;7510;59.296;18.106;2022-10-16T00:54:06;100005.66;;;21.88;61.46
14838;BME280;7510;59.296;18.106;2022-10-16T00:56:35;100012.31;;;20.59;65.78
14838;BME280;7510;59.296;18.106;2022-10-16T00:59:04;100005.66;;;20.82;65.01
14838;BME280;7510;59.296;18.106;2022-10-16T01:01:31;100011.16;;;20.82;65.39
14838;BME280;7510;59.296;18.106;2022-10-16T01:03:57;100013.66;;;21.00;64.81
14838;BME280;7510;59.296;18.106;2022-10-16T01:06:31;100017.91;;;20.76;65.19
14838;BME280;7510;59.296;18.106;2022-10-16T01:17:16;99997.56;;;20.16;68.13
14838;BME280;7510;59.296;18.106;2022-10-16T01:22:48;99991.81;;;21.04;64.56
14838;BME280;7510;59.296;18.106;2022-10-16T01:25:25;100000.16;;;21.72;62.02
14838;BME280;7510;59.296;18.106;2022-10-16T01:27:55;100002.28;;;20.85;65.15
14838;BME280;7510;59.296;18.106;2022-10-16T01:30:30;100009.47;;;21.20;63.75
14838;BME280;7510;59.296;18.106;2022-10-16T01:33:02;100008.59;;;21.67;61.70
14838;BME280;7510;59.296;18.106;2022-10-16T01:35:39;99998.47;;;20.64;65.26
14838;BME280;7510;59.296;18.106;2022-10-16T01:40:46;100011.78;;;22.19;59.77
14838;BME280;7510;59.296;18.106;2022-10-16T01:43:15;100019.38;;;21.55;62.37
14838;BME280;7510;59.296;18.106;2022-10-16T01:45:44;100004.97;;;21.32;62.56
14838;BME280;7510;59.296;18.106;2022-10-16T01:48:13;100019.75;;;21.79;61.52
14838;BME280;7510;59.296;18.106;2022-10-16T01:50:41;100029.44;;;21.84;60.80
14838;BME280;7510;59.296;18.106;2022-10-16T01:53:11;100026.53;;;20.61;64.81
14838;BME280;7510;59.296;18.106;2022-10-16T01:55:41;100013.09;;;21.80;60.86
14838;BME280;7510;59.296;18.106;2022-10-16T01:58:12;100022.66;;;21.57;62.15
14838;BME280;7510;59.296;18.106;2022-10-16T02:00:40;100032.66;;;21.53;62.70
14838;BME280;7510;59.296;18.106;2022-10-16T02:03:10;100018.22;;;22.15;60.21
14838;BME280;7510;59.296;18.106;2022-10-16T02:08:07;100007.53;;;21.29;62.72
14838;BME280;7510;59.296;18.106;2022-10-16T02:10:34;100001.06;;;21.33;62.32
14838;BME280;7510;59.296;18.106;2022-10-16T02:13:07;99994.78;;;21.16;63.13
14838;BME280;7510;59.296;18.106;2022-10-16T02:15:34;99989.91;;;21.30;62.41
14838;BME280;7510;59.296;18.106;2022-10-16T02:18:02;99989.22;;;20.99;63.32
14838;BME280;7510;59.296;18.106;2022-10-16T02:20:32;99998.72;;;20.85;64.23
14838;BME280;7510;59.296;18.106;2022-10-16T02:23:00;99988.25;;;20.95;63.81
14838;BME280;7510;59.296;18.106;2022-10-16T02:25:37;100002.44;;;20.50;66.15
14838;BME280;7510;59.296;18.106;2022-10-16T02:31:02;99995.03;;;22.41;59.37
14838;BME280;7510;59.296;18.106;2022-10-16T02:33:29;99994.19;;;21.86;60.70
14838;BME280;7510;59.296;18.106;2022-10-16T02:35:57;99997.88;;;21.48;61.37
14838;BME280;7510;59.296;18.106;2022-10-16T02:38:23;100011.00;;;21.77;60.89
14838;BME280;7510;59.296;18.106;2022-10-16T02:40:50;100006.38;;;20.66;64.79
14838;BME280;7510;59.296;18.106;2022-10-16T02:43:16;100010.97;;;21.51;62.19
14838;BME280;7510;59.296;18.106;2022-10-16T02:45:41;100011.81;;;21.60;61.63
14838;BME280;7510;59.296;18.106;2022-10-16T02:48:15;100001.53;;;21.10;63.02
14838;BME280;7510;59.296;18.106;2022-10-16T02:50:41;99997.34;;;22.39;58.83
14838;BME280;7510;59.296;18.106;2022-10-16T02:53:06;99995.72;;;22.21;59.25
14838;BME280;7510;59.296;18.106;2022-10-16T02:55:32;100000.91;;;21.30;62.32
14838;BME280;7510;59.296;18.106;2022-10-16T02:57:57;99993.72;;;21.68;61.01
14838;BME280;7510;59.296;18.106;2022-10-16T03:00:23;99983.28;;;21.31;62.45
14838;BME280;7510;59.296;18.106;2022-10-16T03:02:49;99969.91;;;21.72;60.33
14838;BME280;7510;59.296;18.106;2022-10-16T03:05:15;99973.94;;;21.74;60.33
14838;BME280;7510;59.296;18.106;2022-10-16T03:07:40;99986.78;;;20.97;63.26
14838;BME280;7510;59.296;18.106;2022-10-16T03:10:06;99980.53;;;21.31;61.48
14838;BME280;7510;59.296;18.106;2022-10-16T03:12:32;99957.28;;;21.87;59.45
14838;BME280;7510;59.296;18.106;2022-10-16T03:14:57;99955.66;;;21.86;59.45
14838;BME280;7510;59.296;18.106;2022-10-16T03:17:23;99962.72;;;21.03;62.17
14838;BME280;7510;59.296;18.106;2022-10-16T03:19:49;99965.53;;;21.37;61.29
14838;BME280;7510;59.296;18.106;2022-10-16T03:22:15;99974.41;;;21.17;62.11
14838;BME280;7510;59.296;18.106;2022-10-16T03:24:40;99964.22;;;21.34;61.29
14838;BME280;7510;59.296;18.106;2022-10-16T03:27:06;99960.47;;;21.05;62.67
14838;BME280;7510;59.296;18.106;2022-10-16T03:29:32;99969.03;;;21.12;61.91
14838;BME280;7510;59.296;18.106;2022-10-16T03:31:58;99955.63;;;21.02;62.61
14838;BME280;7510;59.296;18.106;2022-10-16T03:34:24;99964.81;;;20.97;62.65
14838;BME280;7510;59.296;18.106;2022-10-16T03:36:50;99976.19;;;21.81;59.40
14838;BME280;7510;59.296;18.106;2022-10-16T03:39:15;99973.69;;;20.86;62.03
14838;BME280;7510;59.296;18.106;2022-10-16T03:41:41;99983.31;;;21.22;61.50
14838;BME280;7510;59.296;18.106;2022-10-16T03:44:06;99977.66;;;21.36;61.20
14838;BME280;7510;59.296;18.106;2022-10-16T03:46:32;99969.59;;;20.36;63.87
14838;BME280;7510;59.296;18.106;2022-10-16T03:48:57;99970.53;;;21.35;60.62
14838;BME280;7510;59.296;18.106;2022-10-16T03:51:22;99974.72;;;21.07;61.16
14838;BME280;7510;59.296;18.106;2022-10-16T03:53:48;99945.31;;;21.33;60.02
14838;BME280;7510;59.296;18.106;2022-10-16T03:56:13;99940.72;;;20.86;61.75
14838;BME280;7510;59.296;18.106;2022-10-16T03:58:39;99956.78;;;21.35;60.65
14838;BME280;7510;59.296;18.106;2022-10-16T04:01:04;99956.47;;;21.28;60.45
14838;BME280;7510;59.296;18.106;2022-10-16T04:03:31;99938.44;;;20.80;61.85
14838;BME280;7510;59.296;18.106;2022-10-16T04:05:56;99944.94;;;20.92;61.07
14838;BME280;7510;59.296;18.106;2022-10-16T04:08:22;99954.66;;;21.49;59.61
14838;BME280;7510;59.296;18.106;2022-10-16T04:10:47;99949.44;;;20.88;61.58
14838;BME280;7510;59.296;18.106;2022-10-16T04:13:14;99952.03;;;20.46;63.57
14838;BME280;7510;59.296;18.106;2022-10-16T04:15:40;99940.91;;;20.90;61.95
14838;BME280;7510;59.296;18.106;2022-10-16T04:18:06;99939.09;;;20.85;61.64
14838;BME280;7510;59.296;18.106;2022-10-16T04:20:32;99945.19;;;20.35;64.37
14838;BME280;7510;59.296;18.106;2022-10-16T04:22:58;99946.97;;;20.70;62.76
14838;BME280;7510;59.296;18.106;2022-10-16T04:25:24;99955.16;;;21.34;60.57
14838;BME280;7510;59.296;18.106;2022-10-16T04:27:49;99958.09;;;21.71;59.20
14838;BME280;7510;59.296;18.106;2022-10-16T04:30:15;99963.25;;;21.64;59.66
14838;BME280;7510;59.296;18.106;2022-10-16T04:32:40;99969.84;;;21.04;61.45
14838;BME280;7510;59.296;18.106;2022-10-16T04:35:06;99974.72;;;20.68;62.35
14838;BME280;7510;59.296;18.106;2022-10-16T04:37:32;99942.84;;;20.50;62.98
14838;BME280;7510;59.296;18.106;2022-10-16T04:39:57;99966.63;;;21.19;61.07
14838;BME280;7510;59.296;18.106;2022-10-16T04:42:23;99966.47;;;20.68;62.18
14838;BME280;7510;59.296;18.106;2022-10-16T04:44:48;99962.72;;;21.03;60.72
14838;BME280;7510;59.296;18.106;2022-10-16T04:47:14;99971.84;;;20.34;63.78
14838;BME280;7510;59.296;18.106;2022-10-16T04:49:39;99961.75;;;20.99;61.75
14838;BME280;7510;59.296;18.106;2022-10-16T04:52:05;99965.31;;;21.08;61.31
14838;BME280;7510;59.296;18.106;2022-10-16T04:54:31;99963.56;;;19.96;65.31
14838;BME280;7510;59.296;18.106;2022-10-16T04:56:56;99954.31;;;21.08;61.16
14838;BME280;7510;59.296;18.106;2022-10-16T04:59:22;99959.81;;;20.99;61.37
14838;BME280;7510;59.296;18.106;2022-10-16T05:01:48;99949.69;;;21.42;60.11
14838;BME280;7510;59.296;18.106;2022-10-16T05:04:14;99957.81;;;20.36;63.90
14838;BME280;7510;59.296;18.106;2022-10-16T05:06:41;99974.25;;;20.66;62.44
14838;BME280;7510;59.296;18.106;2022-10-16T05:09:07;99959.84;;;20.61;62.88
14838;BME280;7510;59.296;18.106;2022-10-16T05:11:33;99957.84;;;20.83;62.43
14838;BME280;7510;59.296;18.106;2022-10-16T05:13:58;99967.47;;;20.33;63.58
14838;BME280;7510;59.296;18.106;2022-10-16T05:16:24;99949.16;;;20.20;64.07
14838;BME280;7510;59.296;18.106;2022-10-16T05:18:51;99955.31;;;20.56;63.23
14838;BME280;7510;59.296;18.106;2022-10-16T05:21:16;99951.06;;;20.11;64.86
14838;BME280;7510;59.296;18.106;2022-10-16T05:23:42;99950.41;;;20.45;63.51
14838;BME280;7510;59.296;18.106;2022-10-16T05:26:07;99946.63;;;20.02;64.99
14838;BME280;7510;59.296;18.106;2022-10-16T05:28:33;99956.94;;;19.75;66.77
14838;BME280;7510;59.296;18.106;2022-10-16T05:31:04;99950.47;;;21.26;61.10
14838;BME280;7510;59.296;18.106;2022-10-16T05:33:32;99973.38;;;20.57;62.82
14838;BME280;7510;59.296;18.106;2022-10-16T05:36:01;99967.97;;;21.47;60.18
14838;BME280;7510;59.296;18.106;2022-10-16T05:38:27;99968.41;;;21.32;60.77
14838;BME280;7510;59.296;18.106;2022-10-16T05:40:53;99963.38;;;21.00;62.26
14838;BME280;7510;59.296;18.106;2022-10-16T05:43:20;99964.09;;;20.75;62.18
14838;BME280;7510;59.296;18.106;2022-10-16T05:45:54;99969.59;;;20.36;64.19
14838;BME280;7510;59.296;18.106;2022-10-16T05:48:19;99963.84;;;20.85;63.12
14838;BME280;7510;59.296;18.106;2022-10-16T05:50:45;99967.91;;;20.96;62.82
14838;BME280;7510;59.296;18.106;2022-10-16T05:53:10;99957.00;;;20.83;63.02
14838;BME280;7510;59.296;18.106;2022-10-16T05:55:36;99961.72;;;20.43;65.00
14838;BME280;7510;59.296;18.106;2022-10-16T05:58:02;99971.09;;;19.90;66.71
14838;BME280;7510;59.296;18.106;2022-10-16T06:00:27;99960.56;;;19.84;68.03
14838;BME280;7510;59.296;18.106;2022-10-16T06:02:53;99956.06;;;20.09;67.36
14838;BME280;7510;59.296;18.106;2022-10-16T06:05:18;99960.91;;;19.91;67.70
14838;BME280;7510;59.296;18.106;2022-10-16T06:07:44;99978.13;;;20.65;65.28
14838;BME280;7510;59.296;18.106;2022-10-16T06:10:09;99964.66;;;20.94;64.02
14838;BME280;7510;59.296;18.106;2022-10-16T06:12:35;99985.09;;;21.44;62.28
14838;BME280;7510;59.296;18.106;2022-10-16T06:15:00;99992.41;;;20.84;64.07
14838;BME280;7510;59.296;18.106;2022-10-16T06:17:26;99991.03;;;20.65;65.20
14838;BME280;7510;59.296;18.106;2022-10-16T06:19:52;99989.28;;;21.50;62.26
14838;BME280;7510;59.296;18.106;2022-10-16T06:22:17;99991.34;;;21.19;63.26
14838;BME280;7510;59.296;18.106;2022-10-16T06:24:42;99993.16;;;21.32;63.10
14838;BME280;7510;59.296;18.106;2022-10-16T06:27:08;99999.56;;;21.02;64.05
14838;BME280;7510;59.296;18.106;2022-10-16T06:29:33;99989.28;;;21.50;62.36
14838;BME280;7510;59.296;18.106;2022-10-16T06:31:59;99996.22;;;21.22;63.46
14838;BME280;7510;59.296;18.106;2022-10-16T06:34:25;99993.47;;;21.39;62.84
14838;BME280;7510;59.296;18.106;2022-10-16T06:36:50;100001.97;;;21.68;62.09
14838;BME280;7510;59.296;18.106;2022-10-16T06:39:15;100007.09;;;21.94;61.15
14838;BME280;7510;59.296;18.106;2022-10-16T06:41:41;100001.28;;;21.87;61.61
14838;BME280;7510;59.296;18.106;2022-10-16T06:44:07;99992.84;;;21.42;63.28
14838;BME280;7510;59.296;18.106;2022-10-16T06:46:36;99993.44;;;21.05;64.71
14838;BME280;7510;59.296;18.106;2022-10-16T06:49:01;99992.22;;;21.45;63.72
14838;BME280;7510;59.296;18.106;2022-10-16T06:51:27;100003.53;;;21.35;63.91
14838;BME280;7510;59.296;18.106;2022-10-16T06:53:55;99998.06;;;21.85;61.87
14838;BME280;7510;59.296;18.106;2022-10-16T06:56:29;100000.59;;;21.40;64.08
14838;BME280;7510;59.296;18.106;2022-10-16T06:58:57;100010.34;;;21.96;61.91
14838;BME280;7510;59.296;18.106;2022-10-16T07:01:23;100009.88;;;21.69;62.80
14838;BME280;7510;59.296;18.106;2022-10-16T07:03:50;100006.06;;;22.41;60.33
14838;BME280;7510;59.296;18.106;2022-10-16T07:06:18;100004.13;;;22.25;60.36
14838;BME280;7510;59.296;18.106;2022-10-16T07:08:46;100010.66;;;21.70;62.56
14838;BME280;7510;59.296;18.106;2022-10-16T07:11:17;100006.16;;;21.74;61.80
14838;BME280;7510;59.296;18.106;2022-10-16T07:13:44;100011.44;;;22.75;59.26
14838;BME280;7510;59.296;18.106;2022-10-16T07:16:16;100019.69;;;21.45;63.27
14838;BME280;7510;59.296;18.106;2022-10-16T07:18:44;100016.28;;;22.78;58.93
14838;BME280;7510;59.296;18.106;2022-10-16T07:21:20;100002.13;;;22.59;59.04
14838;BME280;7510;59.296;18.106;2022-10-16T07:23:57;100007.06;;;23.03;57.81
14838;BME280;7510;59.296;18.106;2022-10-16T07:26:24;100004.66;;;22.10;60.98
14838;BME280;7510;59.296;18.106;2022-10-16T07:28:50;100024.44;;;22.66;58.85
14838;BME280;7510;59.296;18.106;2022-10-16T07:31:17;100009.84;;;23.32;56.40
14838;BME280;7510;59.296;18.106;2022-10-16T07:33:44;100015.19;;;23.08;57.21
14838;BME280;7510;59.296;18.106;2022-10-16T07:36:11;100008.09;;;23.27;55.99
14838;BME280;7510;59.296;18.106;2022-10-16T07:38:37;100013.94;;;22.97;56.40
14838;BME280;7510;59.296;18.106;2022-10-16T07:41:05;100025.59;;;22.94;56.75
14838;BME280;7510;59.296;18.106;2022-10-16T07:43:31;100025.13;;;23.29;55.41
14838;BME280;7510;59.296;18.106;2022-10-16T07:45:57;100013.28;;;23.29;55.46
14838;BME280;7510;59.296;18.106;2022-10-16T07:48:27;100036.63;;;22.94;57.12
14838;BME280;7510;59.296;18.106;2022-10-16T07:51:00;100024.53;;;23.44;54.87
14838;BME280;7510;59.296;18.106;2022-10-16T07:53:26;100028.63;;;23.09;55.67
14838;BME280;7510;59.296;18.106;2022-10-16T07:55:52;100024.81;;;23.71;54.28
14838;BME280;7510;59.296;18.106;2022-10-16T07:58:21;100019.75;;;23.53;54.39
14838;BME280;7510;59.296;18.106;2022-10-16T08:00:47;100023.31;;;23.54;53.47
14838;BME280;7510;59.296;18.106;2022-10-16T08:03:12;100004.03;;;22.96;54.48
14838;BME280;7510;59.296;18.106;2022-10-16T08:05:38;100021.47;;;23.17;54.17
14838;BME280;7510;59.296;18.106;2022-10-16T08:08:03;100024.88;;;23.14;53.88
14838;BME280;7510;59.296;18.106;2022-10-16T08:10:29;100008.09;;;23.27;53.26
14838;BME280;7510;59.296;18.106;2022-10-16T08:12:54;100020.03;;;22.73;54.70
14838;BME280;7510;59.296;18.106;2022-10-16T08:15:20;100028.19;;;22.99;53.96
14838;BME280;7510;59.296;18.106;2022-10-16T08:18:00;100026.94;;;23.46;52.67
14838;BME280;7510;59.296;18.106;2022-10-16T08:20:27;100034.72;;;22.86;54.11
14838;BME280;7510;59.296;18.106;2022-10-16T08:22:53;100033.03;;;23.02;53.68
14838;BME280;7510;59.296;18.106;2022-10-16T08:25:20;100036.94;;;23.59;52.30
14838;BME280;7510;59.296;18.106;2022-10-16T08:27:45;100045.47;;;22.79;54.11
14838;BME280;7510;59.296;18.106;2022-10-16T08:30:13;100037.25;;;23.37;52.35
14838;BME280;7510;59.296;18.106;2022-10-16T08:32:39;100040.81;;;23.58;51.81
14838;BME280;7510;59.296;18.106;2022-10-16T08:35:06;100050.28;;;23.48;52.33
14838;BME280;7510;59.296;18.106;2022-10-16T08:37:33;100039.72;;;23.30;52.70
14838;BME280;7510;59.296;18.106;2022-10-16T08:39:58;100043.03;;;23.15;53.23
14838;BME280;7510;59.296;18.106;2022-10-16T08:47:49;100042.91;;;23.11;53.19
14838;BME280;7510;59.296;18.106;2022-10-16T08:50:24;100044.88;;;23.11;53.35
14838;BME280;7510;59.296;18.106;2022-10-16T08:52:50;100053.66;;;23.54;52.27
14838;BME280;7510;59.296;18.106;2022-10-16T08:56:07;100049.84;;;23.66;51.59
14838;BME280;7510;59.296;18.106;2022-10-16T08:58:22;100054.16;;;23.96;50.98
14838;BME280;7510;59.296;18.106;2022-10-16T09:00:53;100045.28;;;24.11;50.19
14838;BME280;7510;59.296;18.106;2022-10-16T09:03:24;100056.28;;;24.32;49.72
14838;BME280;7510;59.296;18.106;2022-10-16T09:08:50;100054.25;;;23.39;52.23
14838;BME280;7510;59.296;18.106;2022-10-16T09:16:24;100054.31;;;23.79;50.62
14838;BME280;7510;59.296;18.106;2022-10-16T09:19:01;100062.16;;;24.62;48.87
14838;BME280;7510;59.296;18.106;2022-10-16T09:21:46;100056.47;;;23.94;50.25
14838;BME280;7510;59.296;18.106;2022-10-16T09:24:18;100046.38;;;24.63;48.58
14838;BME280;7510;59.296;18.106;2022-10-16T09:26:44;100052.53;;;25.04;47.74
14838;BME280;7510;59.296;18.106;2022-10-16T09:29:14;100040.09;;;24.86;47.24
14838;BME280;7510;59.296;18.106;2022-10-16T09:31:41;100048.72;;;25.09;47.42
14838;BME280;7510;59.296;18.106;2022-10-16T09:36:44;100063.66;;;24.07;49.13
14838;BME280;7510;59.296;18.106;2022-10-16T09:39:12;100052.13;;;24.58;47.98
14838;BME280;7510;59.296;18.106;2022-10-16T09:41:39;100059.19;;;24.67;47.61
14838;BME280;7510;59.296;18.106;2022-10-16T09:44:27;100051.41;;;24.49;48.67
14838;BME280;7510;59.296;18.106;2022-10-16T09:49:36;100045.34;;;24.35;48.52
14838;BME280;7510;59.296;18.106;2022-10-16T09:52:04;100048.69;;;24.85;47.54
14838;BME280;7510;59.296;18.106;2022-10-16T09:54:30;100047.28;;;24.67;46.97
14838;BME280;7510;59.296;18.106;2022-10-16T09:57:07;100058.72;;;24.13;47.94
14838;BME280;7510;59.296;18.106;2022-10-16T09:59:46;100061.66;;;24.49;47.13
14838;BME280;7510;59.296;18.106;2022-10-16T10:02:14;100062.25;;;24.01;48.60
14838;BME280;7510;59.296;18.106;2022-10-16T10:04:49;100050.28;;;24.50;47.51
14838;BME280;7510;59.296;18.106;2022-10-16T10:07:23;100057.88;;;24.53;46.89
14838;BME280;7510;59.296;18.106;2022-10-16T10:09:49;100046.84;;;24.77;46.61
14838;BME280;7510;59.296;18.106;2022-10-16T10:12:33;100044.69;;;24.38;47.25
14838;BME280;7510;59.296;18.106;2022-10-16T10:15:13;100047.16;;;24.19;47.69
14838;BME280;7510;59.296;18.106;2022-10-16T10:17:48;100041.31;;;24.77;46.67
14838;BME280;7510;59.296;18.106;2022-10-16T10:20:35;100042.22;;;24.57;47.43
14838;BME280;7510;59.296;18.106;2022-10-16T10:23:24;100051.63;;;25.48;44.89
14838;BME280;7510;59.296;18.106;2022-10-16T10:26:07;100053.81;;;25.42;44.61
14838;BME280;7510;59.296;18.106;2022-10-16T10:31:27;100048.25;;;24.95;45.23
14838;BME280;7510;59.296;18.106;2022-10-16T10:37:04;100051.56;;;24.32;46.83
14838;BME280;7510;59.296;18.106;2022-10-16T10:39:47;100046.22;;;25.16;44.79
14838;BME280;7510;59.296;18.106;2022-10-16T10:42:36;100056.56;;;25.07;45.02
14838;BME280;7510;59.296;18.106;2022-10-16T10:45:16;100043.69;;;25.23;43.80
14838;BME280;7510;59.296;18.106;2022-10-16T10:50:48;100059.44;;;23.89;46.45
14838;BME280;7510;59.296;18.106;2022-10-16T11:01:59;100043.91;;;24.94;44.25
14838;BME280;7510;59.296;18.106;2022-10-16T11:07:19;100035.50;;;24.46;45.27
14838;BME280;7510;59.296;18.106;2022-10-16T11:09:51;100044.59;;;25.03;43.69
14838;BME280;7510;59.296;18.106;2022-10-16T11:12:25;100040.34;;;25.17;43.93
14838;BME280;7510;59.296;18.106;2022-10-16T11:17:35;100045.00;;;24.04;45.98
14838;BME280;7510;59.296;18.106;2022-10-16T11:20:18;100032.03;;;23.84;45.31
14838;BME280;7510;59.296;18.106;2022-10-16T11:22:46;100030.19;;;24.09;44.59
14838;BME280;7510;59.296;18.106;2022-10-16T11:30:18;100015.78;;;25.16;40.88
14838;BME280;7510;59.296;18.106;2022-10-16T11:35:53;100012.31;;;25.07;42.34
14838;BME280;7510;59.296;18.106;2022-10-16T11:41:39;100022.22;;;24.96;43.05
14838;BME280;7510;59.296;18.106;2022-10-16T11:47:05;100014.72;;;23.96;43.75
14838;BME280;7510;59.296;18.106;2022-10-16T11:49:33;100016.16;;;23.81;44.41
14838;BME280;7510;59.296;18.106;2022-10-16T11:54:49;99995.22;;;23.40;45.15
14838;BME280;7510;59.296;18.106;2022-10-16T11:57:34;100006.91;;;23.37;46.30
14838;BME280;7510;59.296;18.106;2022-10-16T12:02:55;99994.28;;;24.41;44.61
14838;BME280;7510;59.296;18.106;2022-10-16T12:08:10;99984.09;;;23.68;46.36
14838;BME280;7510;59.296;18.106;2022-10-16T12:10:37;99986.63;;;23.73;46.85
14838;BME280;7510;59.296;18.106;2022-10-16T12:13:05;99977.09;;;24.36;45.17
14838;BME280;7510;59.296;18.106;2022-10-16T12:15:50;99977.84;;;23.60;47.33
14838;BME280;7510;59.296;18.106;2022-10-16T12:18:25;99967.06;;;24.19;46.51
14838;BME280;7510;59.296;18.106;2022-10-16T12:21:00;99969.25;;;23.12;48.99
14838;BME280;7510;59.296;18.106;2022-10-16T12:23:36;99970.09;;;23.04;49.83
14838;BME280;7510;59.296;18.106;2022-10-16T12:26:04;99964.75;;;23.07;49.45
14838;BME280;7510;59.296;18.106;2022-10-16T12:28:32;99957.75;;;22.52;50.41
14838;BME280;7510;59.296;18.106;2022-10-16T12:31:06;99952.28;;;23.10;49.32
14838;BME280;7510;59.296;18.106;2022-10-16T12:33:35;99939.59;;;21.97;51.79
14838;BME280;7510;59.296;18.106;2022-10-16T12:36:10;99942.53;;;23.12;48.81
14838;BME280;7510;59.296;18.106;2022-10-16T12:38:47;99941.44;;;22.96;49.13
14838;BME280;7510;59.296;18.106;2022-10-16T12:41:24;99947.91;;;23.09;49.62
14838;BME280;7510;59.296;18.106;2022-10-16T12:43:50;99945.16;;;23.29;48.60
14838;BME280;7510;59.296;18.106;2022-10-16T12:48:44;99932.63;;;23.32;47.97
14838;BME280;7510;59.296;18.106;2022-10-16T12:51:34;99934.00;;;23.05;48.93
14838;BME280;7510;59.296;18.106;2022-10-16T13:05:03;99922.00;;;23.22;48.77
14838;BME280;7510;59.296;18.106;2022-10-16T13:10:45;99912.28;;;22.38;50.03
14838;BME280;7510;59.296;18.106;2022-10-16T13:13:29;99913.22;;;23.81;47.19
14838;BME280;7510;59.296;18.106;2022-10-16T13:16:03;99906.78;;;23.57;47.42
14838;BME280;7510;59.296;18.106;2022-10-16T13:19:06;99903.34;;;22.49;49.85
14838;BME280;7510;59.296;18.106;2022-10-16T13:27:18;99877.72;;;22.11;50.69
14838;BME280;7510;59.296;18.106;2022-10-16T13:29:45;99872.19;;;21.66;52.21
14838;BME280;7510;59.296;18.106;2022-10-16T13:32:17;99891.19;;;22.99;48.54
14838;BME280;7510;59.296;18.106;2022-10-16T13:34:47;99892.56;;;23.34;48.16
14838;BME280;7510;59.296;18.106;2022-10-16T13:37:18;99883.91;;;22.74;49.61
14838;BME280;7510;59.296;18.106;2022-10-16T13:39:44;99888.13;;;22.72;49.32
14838;BME280;7510;59.296;18.106;2022-10-16T13:42:13;99882.66;;;21.89;51.53
14838;BME280;7510;59.296;18.106;2022-10-16T13:44:48;99875.81;;;22.49;50.31
14838;BME280;7510;59.296;18.106;2022-10-16T13:47:17;99877.19;;;22.84;49.63
14838;BME280;7510;59.296;18.106;2022-10-16T13:49:43;99876.38;;;23.04;49.20
14838;BME280;7510;59.296;18.106;2022-10-16T13:52:20;99873.28;;;22.85;49.39
14838;BME280;7510;59.296;18.106;2022-10-16T13:54:46;99880.81;;;23.25;48.31
14838;BME280;7510;59.296;18.106;2022-10-16T13:57:15;99873.69;;;22.46;49.83
14838;BME280;7510;59.296;18.106;2022-10-16T13:59:41;99865.19;;;22.22;50.85
14838;BME280;7510;59.296;18.106;2022-10-16T14:02:29;99856.66;;;21.53;52.33
14838;BME280;7510;59.296;18.106;2022-10-16T14:04:57;99840.03;;;21.41;52.50
14838;BME280;7510;59.296;18.106;2022-10-16T14:07:26;99861.69;;;21.59;52.14
14838;BME280;7510;59.296;18.106;2022-10-16T14:09:53;99865.06;;;22.56;49.63
14838;BME280;7510;59.296;18.106;2022-10-16T14:12:19;99860.56;;;21.69;51.49
14838;BME280;7510;59.296;18.106;2022-10-16T14:14:49;99861.88;;;22.74;49.33
14838;BME280;7510;59.296;18.106;2022-10-16T14:17:20;99855.53;;;22.16;50.12
14838;BME280;7510;59.296;18.106;2022-10-16T14:19:48;99861.16;;;23.06;48.04
14838;BME280;7510;59.296;18.106;2022-10-16T14:22:29;99850.94;;;22.58;48.82
14838;BME280;7510;59.296;18.106;2022-10-16T14:24:55;99850.69;;;22.71;48.70
14838;BME280;7510;59.296;18.106;2022-10-16T14:27:41;99849.84;;;22.79;48.69
14838;BME280;7510;59.296;18.106;2022-10-16T14:30:19;99847.53;;;22.81;48.49
14838;BME280;7510;59.296;18.106;2022-10-16T14:37:56;99854.38;;;22.17;50.05
14838;BME280;7510;59.296;18.106;2022-10-16T14:40:28;99878.53;;;21.32;53.04
14838;BME280;7510;59.296;18.106;2022-10-16T14:42:54;99864.78;;;21.58;52.31
14838;BME280;7510;59.296;18.106;2022-10-16T14:45:29;99860.50;;;22.31;50.62
14838;BME280;7510;59.296;18.106;2022-10-16T14:48:02;99859.03;;;21.88;52.26
14838;BME280;7510;59.296;18.106;2022-10-16T14:50:29;99860.53;;;21.52;52.50
14838;BME280;7510;59.296;18.106;2022-10-16T14:52:55;99858.94;;;21.68;52.69
14838;BME280;7510;59.296;18.106;2022-10-16T14:55:21;99861.25;;;21.15;54.04
14838;BME280;7510;59.296;18.106;2022-10-16T14:57:47;99854.28;;;21.00;54.69